sensor_id;sensor_type;location;lat;lon;timestamp;P1;durP1;ratioP1;P2;durP2;ratioP2
6626;SDS011;3349;49.830;8.748;2022-12-10T00:00:02;27.63;;;18.37;;
6626;SDS011;3349;49.830;8.748;2022-12-10T00:02:30;28.80;;;18.27;;
6626;SDS011;3349;49.830;8.748;2022-12-10T00:04:56;26.77;;;17.00;;
6626;SDS011;3349;49.830;8.748;2022-12-10T00:07:23;29.80;;;17.17;;
6626;SDS011;3349;49.830;8.748;2022-12-10T00:09:50;29.13;;;17.00;;
6626;SDS011;3349;49.830;8.748;2022-12-10T00:12:16;25.80;;;16.67;;
6626;SDS011;3349;49.830;8.748;2022-12-10T00:14:43;29.87;;;18.57;;
6626;SDS011;3349;49.830;8.748;2022-12-10T00:17:11;29.40;;;17.87;;
6626;SDS011;3349;49.830;8.748;2022-12-10T00:19:38;28.27;;;18.23;;
6626;SDS011;3349;49.830;8.748;2022-12-10T00:22:05;30.47;;;18.93;;
6626;SDS011;3349;49.830;8.748;2022-12-10T00:24:31;31.93;;;18.57;;
6626;SDS011;3349;49.830;8.748;2022-12-10T00:26:58;30.20;;;18.03;;
6626;SDS011;3349;49.830;8.748;2022-12-10T00:29:25;30.37;;;19.00;;
6626;SDS011;3349;49.830;8.748;2022-12-10T00:31:52;31.20;;;17.90;;
6626;SDS011;3349;49.830;8.748;2022-12-10T00:34:20;30.77;;;18.40;;
6626;SDS011;3349;49.830;8.748;2022-12-10T00:36:47;32.60;;;19.07;;
6626;SDS011;3349;49.830;8.748;2022-12-10T00:39:15;30.47;;;17.97;;
6626;SDS011;3349;49.830;8.748;2022-12-10T00:41:43;31.23;;;18.77;;
6626;SDS011;3349;49.830;8.748;2022-12-10T00:44:10;32.30;;;18.17;;
6626;SDS011;3349;49.830;8.748;2022-12-10T00:46:37;30.50;;;18.23;;
6626;SDS011;3349;49.830;8.748;2022-12-10T00:49:04;30.83;;;18.40;;
6626;SDS011;3349;49.830;8.748;2022-12-10T00:51:32;30.10;;;18.20;;
6626;SDS011;3349;49.830;8.748;2022-12-10T00:53:59;30.80;;;18.77;;
6626;SDS011;3349;49.830;8.748;2022-12-10T00:56:31;30.77;;;17.87;;
6626;SDS011;3349;49.830;8.748;2022-12-10T00:58:59;30.23;;;17.73;;
6626;SDS011;3349;49.830;8.748;2022-12-10T01:01:26;30.20;;;18.47;;
6626;SDS011;3349;49.830;8.748;2022-12-10T01:03:57;28.47;;;17.20;;
6626;SDS011;3349;49.830;8.748;2022-12-10T01:06:26;33.53;;;19.53;;
6626;SDS011;3349;49.830;8.748;2022-12-10T01:08:57;30.20;;;18.10;;
6626;SDS011;3349;49.830;8.748;2022-12-10T01:11:28;30.43;;;18.70;;
6626;SDS011;3349;49.830;8.748;2022-12-10T01:13:57;31.23;;;17.87;;
6626;SDS011;3349;49.830;8.748;2022-12-10T01:16:24;30.40;;;17.67;;
6626;SDS011;3349;49.830;8.748;2022-12-10T01:18:52;27.13;;;17.43;;
6626;SDS011;3349;49.830;8.748;2022-12-10T01:21:19;30.47;;;17.77;;
6626;SDS011;3349;49.830;8.748;2022-12-10T01:23:47;31.57;;;18.40;;
6626;SDS011;3349;49.830;8.748;2022-12-10T01:26:18;29.23;;;18.00;;
6626;SDS011;3349;49.830;8.748;2022-12-10T01:28:45;31.10;;;17.67;;
6626;SDS011;3349;49.830;8.748;2022-12-10T01:31:13;31.90;;;18.73;;
6626;SDS011;3349;49.830;8.748;2022-12-10T01:33:42;28.50;;;17.87;;
6626;SDS011;3349;49.830;8.748;2022-12-10T01:36:10;28.00;;;16.87;;
6626;SDS011;3349;49.830;8.748;2022-12-10T01:38:39;27.07;;;16.17;;
6626;SDS011;3349;49.830;8.748;2022-12-10T01:41:06;28.73;;;17.03;;
6626;SDS011;3349;49.830;8.748;2022-12-10T01:43:57;29.40;;;17.73;;
6626;SDS011;3349;49.830;8.748;2022-12-10T01:46:26;29.07;;;17.30;;
6626;SDS011;3349;49.830;8.748;2022-12-10T01:48:55;26.13;;;16.43;;
6626;SDS011;3349;49.830;8.748;2022-12-10T01:51:23;27.40;;;17.10;;
6626;SDS011;3349;49.830;8.748;2022-12-10T01:53:51;31.77;;;17.63;;
6626;SDS011;3349;49.830;8.748;2022-12-10T01:56:18;29.37;;;18.17;;
6626;SDS011;3349;49.830;8.748;2022-12-10T01:58:46;32.20;;;18.57;;
6626;SDS011;3349;49.830;8.748;2022-12-10T02:01:18;33.27;;;18.23;;
6626;SDS011;3349;49.830;8.748;2022-12-10T02:03:56;28.80;;;17.57;;
6626;SDS011;3349;49.830;8.748;2022-12-10T02:06:31;28.70;;;17.30;;
6626;SDS011;3349;49.830;8.748;2022-12-10T02:09:09;30.73;;;18.00;;
6626;SDS011;3349;49.830;8.748;2022-12-10T02:11:40;28.70;;;16.90;;
6626;SDS011;3349;49.830;8.748;2022-12-10T02:14:11;29.47;;;18.20;;
6626;SDS011;3349;49.830;8.748;2022-12-10T02:16:44;29.07;;;16.47;;
6626;SDS011;3349;49.830;8.748;2022-12-10T02:19:17;28.37;;;17.03;;
6626;SDS011;3349;49.830;8.748;2022-12-10T02:21:49;33.37;;;17.87;;
6626;SDS011;3349;49.830;8.748;2022-12-10T02:24:18;29.63;;;17.50;;
6626;SDS011;3349;49.830;8.748;2022-12-10T02:26:51;29.87;;;17.33;;
6626;SDS011;3349;49.830;8.748;2022-12-10T02:29:26;27.83;;;17.03;;
6626;SDS011;3349;49.830;8.748;2022-12-10T02:31:55;27.73;;;16.90;;
6626;SDS011;3349;49.830;8.748;2022-12-10T02:34:30;29.53;;;17.43;;
6626;SDS011;3349;49.830;8.748;2022-12-10T02:37:00;28.97;;;17.73;;
6626;SDS011;3349;49.830;8.748;2022-12-10T02:39:31;29.43;;;17.90;;
6626;SDS011;3349;49.830;8.748;2022-12-10T02:42:02;30.80;;;17.97;;
6626;SDS011;3349;49.830;8.748;2022-12-10T02:44:33;28.70;;;17.43;;
6626;SDS011;3349;49.830;8.748;2022-12-10T02:47:04;31.07;;;18.33;;
6626;SDS011;3349;49.830;8.748;2022-12-10T02:49:34;28.73;;;17.17;;
6626;SDS011;3349;49.830;8.748;2022-12-10T02:52:08;29.43;;;18.23;;
6626;SDS011;3349;49.830;8.748;2022-12-10T02:54:39;26.90;;;16.30;;
6626;SDS011;3349;49.830;8.748;2022-12-10T02:57:09;27.17;;;17.13;;
6626;SDS011;3349;49.830;8.748;2022-12-10T02:59:46;28.80;;;17.57;;
6626;SDS011;3349;49.830;8.748;2022-12-10T03:02:24;27.23;;;17.23;;
6626;SDS011;3349;49.830;8.748;2022-12-10T03:04:59;28.23;;;17.03;;
6626;SDS011;3349;49.830;8.748;2022-12-10T03:07:32;27.97;;;16.77;;
6626;SDS011;3349;49.830;8.748;2022-12-10T03:10:03;29.10;;;16.90;;
6626;SDS011;3349;49.830;8.748;2022-12-10T03:12:36;26.33;;;15.87;;
6626;SDS011;3349;49.830;8.748;2022-12-10T03:15:09;28.63;;;16.27;;
6626;SDS011;3349;49.830;8.748;2022-12-10T03:17:37;26.33;;;16.47;;
6626;SDS011;3349;49.830;8.748;2022-12-10T03:20:06;23.20;;;15.97;;
6626;SDS011;3349;49.830;8.748;2022-12-10T03:22:34;27.03;;;15.60;;
6626;SDS011;3349;49.830;8.748;2022-12-10T03:25:03;26.73;;;15.63;;
6626;SDS011;3349;49.830;8.748;2022-12-10T03:27:31;26.10;;;16.10;;
6626;SDS011;3349;49.830;8.748;2022-12-10T03:29:58;28.93;;;16.13;;
6626;SDS011;3349;49.830;8.748;2022-12-10T03:32:27;26.77;;;16.67;;
6626;SDS011;3349;49.830;8.748;2022-12-10T03:34:56;25.63;;;16.20;;
6626;SDS011;3349;49.830;8.748;2022-12-10T03:37:24;26.03;;;15.73;;
6626;SDS011;3349;49.830;8.748;2022-12-10T03:39:52;27.57;;;15.33;;
6626;SDS011;3349;49.830;8.748;2022-12-10T03:42:20;24.83;;;15.60;;
6626;SDS011;3349;49.830;8.748;2022-12-10T03:44:49;23.63;;;15.27;;
6626;SDS011;3349;49.830;8.748;2022-12-10T03:47:17;22.47;;;14.83;;
6626;SDS011;3349;49.830;8.748;2022-12-10T03:49:46;22.93;;;14.40;;
6626;SDS011;3349;49.830;8.748;2022-12-10T03:52:13;25.47;;;15.10;;
6626;SDS011;3349;49.830;8.748;2022-12-10T03:54:39;24.00;;;15.63;;
6626;SDS011;3349;49.830;8.748;2022-12-10T03:57:06;22.17;;;14.20;;
6626;SDS011;3349;49.830;8.748;2022-12-10T03:59:33;23.47;;;14.77;;
6626;SDS011;3349;49.830;8.748;2022-12-10T04:02:00;23.67;;;14.23;;
6626;SDS011;3349;49.830;8.748;2022-12-10T04:04:27;25.20;;;15.17;;
6626;SDS011;3349;49.830;8.748;2022-12-10T04:06:55;25.30;;;14.80;;
6626;SDS011;3349;49.830;8.748;2022-12-10T04:09:21;24.33;;;14.17;;
6626;SDS011;3349;49.830;8.748;2022-12-10T04:11:48;25.30;;;14.77;;
6626;SDS011;3349;49.830;8.748;2022-12-10T04:14:15;22.77;;;14.53;;
6626;SDS011;3349;49.830;8.748;2022-12-10T04:16:59;25.27;;;15.83;;
6626;SDS011;3349;49.830;8.748;2022-12-10T04:19:26;23.27;;;15.00;;
6626;SDS011;3349;49.830;8.748;2022-12-10T04:21:54;26.57;;;15.93;;
6626;SDS011;3349;49.830;8.748;2022-12-10T04:24:39;21.07;;;14.30;;
6626;SDS011;3349;49.830;8.748;2022-12-10T04:27:24;27.37;;;15.83;;
6626;SDS011;3349;49.830;8.748;2022-12-10T04:29:52;23.87;;;14.47;;
6626;SDS011;3349;49.830;8.748;2022-12-10T04:32:19;24.57;;;15.23;;
6626;SDS011;3349;49.830;8.748;2022-12-10T04:34:47;24.47;;;15.87;;
6626;SDS011;3349;49.830;8.748;2022-12-10T04:37:15;22.30;;;14.60;;
6626;SDS011;3349;49.830;8.748;2022-12-10T04:39:42;23.17;;;14.80;;
6626;SDS011;3349;49.830;8.748;2022-12-10T04:42:09;27.03;;;15.97;;
6626;SDS011;3349;49.830;8.748;2022-12-10T04:44:36;25.43;;;14.53;;
6626;SDS011;3349;49.830;8.748;2022-12-10T04:47:03;25.93;;;15.03;;
6626;SDS011;3349;49.830;8.748;2022-12-10T04:49:31;23.33;;;14.97;;
6626;SDS011;3349;49.830;8.748;2022-12-10T04:51:58;22.13;;;15.40;;
6626;SDS011;3349;49.830;8.748;2022-12-10T04:54:27;21.60;;;13.83;;
6626;SDS011;3349;49.830;8.748;2022-12-10T04:56:53;24.83;;;15.73;;
6626;SDS011;3349;49.830;8.748;2022-12-10T04:59:20;22.50;;;15.07;;
6626;SDS011;3349;49.830;8.748;2022-12-10T05:01:47;24.03;;;14.90;;
6626;SDS011;3349;49.830;8.748;2022-12-10T05:04:15;25.93;;;15.40;;
6626;SDS011;3349;49.830;8.748;2022-12-10T05:06:43;26.57;;;15.80;;
6626;SDS011;3349;49.830;8.748;2022-12-10T05:09:11;26.80;;;15.70;;
6626;SDS011;3349;49.830;8.748;2022-12-10T05:11:40;24.17;;;15.33;;
6626;SDS011;3349;49.830;8.748;2022-12-10T05:14:09;25.20;;;15.97;;
6626;SDS011;3349;49.830;8.748;2022-12-10T05:16:36;20.80;;;14.57;;
6626;SDS011;3349;49.830;8.748;2022-12-10T05:19:03;23.70;;;14.87;;
6626;SDS011;3349;49.830;8.748;2022-12-10T05:21:30;23.17;;;15.07;;
6626;SDS011;3349;49.830;8.748;2022-12-10T05:24:11;23.37;;;14.83;;
6626;SDS011;3349;49.830;8.748;2022-12-10T05:26:39;23.53;;;14.47;;
6626;SDS011;3349;49.830;8.748;2022-12-10T05:29:06;25.00;;;15.27;;
6626;SDS011;3349;49.830;8.748;2022-12-10T05:31:33;23.30;;;14.80;;
6626;SDS011;3349;49.830;8.748;2022-12-10T05:34:00;24.70;;;15.57;;
6626;SDS011;3349;49.830;8.748;2022-12-10T05:36:27;23.50;;;15.40;;
6626;SDS011;3349;49.830;8.748;2022-12-10T05:38:56;25.50;;;15.83;;
6626;SDS011;3349;49.830;8.748;2022-12-10T05:41:24;25.57;;;15.17;;
6626;SDS011;3349;49.830;8.748;2022-12-10T05:43:54;27.73;;;15.37;;
6626;SDS011;3349;49.830;8.748;2022-12-10T05:46:22;26.83;;;16.70;;
6626;SDS011;3349;49.830;8.748;2022-12-10T05:48:51;27.07;;;16.00;;
6626;SDS011;3349;49.830;8.748;2022-12-10T05:51:18;27.80;;;15.90;;
6626;SDS011;3349;49.830;8.748;2022-12-10T05:53:47;26.20;;;15.93;;
6626;SDS011;3349;49.830;8.748;2022-12-10T05:56:15;25.20;;;16.40;;
6626;SDS011;3349;49.830;8.748;2022-12-10T05:58:44;24.87;;;16.70;;
6626;SDS011;3349;49.830;8.748;2022-12-10T06:01:14;27.27;;;17.47;;
6626;SDS011;3349;49.830;8.748;2022-12-10T06:03:42;32.57;;;17.07;;
6626;SDS011;3349;49.830;8.748;2022-12-10T06:06:09;28.00;;;17.70;;
6626;SDS011;3349;49.830;8.748;2022-12-10T06:08:37;27.00;;;17.33;;
6626;SDS011;3349;49.830;8.748;2022-12-10T06:11:05;26.33;;;15.53;;
6626;SDS011;3349;49.830;8.748;2022-12-10T06:13:33;27.87;;;17.13;;
6626;SDS011;3349;49.830;8.748;2022-12-10T06:16:03;27.10;;;18.50;;
6626;SDS011;3349;49.830;8.748;2022-12-10T06:18:31;27.87;;;18.13;;
6626;SDS011;3349;49.830;8.748;2022-12-10T06:20:58;32.07;;;18.40;;
6626;SDS011;3349;49.830;8.748;2022-12-10T06:23:25;25.83;;;16.90;;
6626;SDS011;3349;49.830;8.748;2022-12-10T06:25:51;25.03;;;16.43;;
6626;SDS011;3349;49.830;8.748;2022-12-10T06:28:18;24.90;;;15.67;;
6626;SDS011;3349;49.830;8.748;2022-12-10T06:30:45;25.17;;;16.73;;
6626;SDS011;3349;49.830;8.748;2022-12-10T06:33:11;25.33;;;16.70;;
6626;SDS011;3349;49.830;8.748;2022-12-10T06:35:39;26.67;;;16.03;;
6626;SDS011;3349;49.830;8.748;2022-12-10T06:38:06;25.00;;;15.40;;
6626;SDS011;3349;49.830;8.748;2022-12-10T06:40:33;25.73;;;16.27;;
6626;SDS011;3349;49.830;8.748;2022-12-10T06:43:00;21.87;;;14.70;;
6626;SDS011;3349;49.830;8.748;2022-12-10T06:45:27;23.87;;;15.30;;
6626;SDS011;3349;49.830;8.748;2022-12-10T06:47:54;24.90;;;15.87;;
6626;SDS011;3349;49.830;8.748;2022-12-10T06:50:20;24.50;;;15.53;;
6626;SDS011;3349;49.830;8.748;2022-12-10T06:52:49;25.27;;;15.83;;
6626;SDS011;3349;49.830;8.748;2022-12-10T06:55:16;26.90;;;16.93;;
6626;SDS011;3349;49.830;8.748;2022-12-10T06:57:42;26.70;;;16.73;;
6626;SDS011;3349;49.830;8.748;2022-12-10T07:00:09;27.87;;;15.97;;
6626;SDS011;3349;49.830;8.748;2022-12-10T07:02:37;26.63;;;17.23;;
6626;SDS011;3349;49.830;8.748;2022-12-10T07:05:04;25.83;;;16.07;;
6626;SDS011;3349;49.830;8.748;2022-12-10T07:07:31;28.53;;;17.33;;
6626;SDS011;3349;49.830;8.748;2022-12-10T07:09:59;26.13;;;16.40;;
6626;SDS011;3349;49.830;8.748;2022-12-10T07:12:25;26.47;;;16.40;;
6626;SDS011;3349;49.830;8.748;2022-12-10T07:14:52;22.27;;;14.40;;
6626;SDS011;3349;49.830;8.748;2022-12-10T07:17:19;25.60;;;15.30;;
6626;SDS011;3349;49.830;8.748;2022-12-10T07:19:45;26.73;;;17.13;;
6626;SDS011;3349;49.830;8.748;2022-12-10T07:22:12;26.33;;;17.20;;
6626;SDS011;3349;49.830;8.748;2022-12-10T07:24:39;25.93;;;16.90;;
6626;SDS011;3349;49.830;8.748;2022-12-10T07:27:07;29.10;;;16.97;;
6626;SDS011;3349;49.830;8.748;2022-12-10T07:29:34;25.30;;;16.23;;
6626;SDS011;3349;49.830;8.748;2022-12-10T07:32:01;24.43;;;15.67;;
6626;SDS011;3349;49.830;8.748;2022-12-10T07:34:28;25.23;;;15.53;;
6626;SDS011;3349;49.830;8.748;2022-12-10T07:36:55;22.77;;;14.53;;
6626;SDS011;3349;49.830;8.748;2022-12-10T07:39:22;24.97;;;15.47;;
6626;SDS011;3349;49.830;8.748;2022-12-10T07:41:49;23.77;;;15.37;;
6626;SDS011;3349;49.830;8.748;2022-12-10T07:44:19;21.43;;;15.40;;
6626;SDS011;3349;49.830;8.748;2022-12-10T07:46:46;25.00;;;16.07;;
6626;SDS011;3349;49.830;8.748;2022-12-10T07:49:14;21.80;;;14.93;;
6626;SDS011;3349;49.830;8.748;2022-12-10T07:51:43;23.03;;;15.23;;
6626;SDS011;3349;49.830;8.748;2022-12-10T07:54:10;23.77;;;15.30;;
6626;SDS011;3349;49.830;8.748;2022-12-10T07:56:37;23.43;;;14.80;;
6626;SDS011;3349;49.830;8.748;2022-12-10T07:59:04;24.67;;;15.60;;
6626;SDS011;3349;49.830;8.748;2022-12-10T08:01:32;20.73;;;13.40;;
6626;SDS011;3349;49.830;8.748;2022-12-10T08:03:59;22.07;;;14.73;;
6626;SDS011;3349;49.830;8.748;2022-12-10T08:06:26;20.37;;;14.33;;
6626;SDS011;3349;49.830;8.748;2022-12-10T08:08:54;23.13;;;14.80;;
6626;SDS011;3349;49.830;8.748;2022-12-10T08:11:21;23.87;;;14.90;;
6626;SDS011;3349;49.830;8.748;2022-12-10T08:13:49;21.97;;;14.77;;
6626;SDS011;3349;49.830;8.748;2022-12-10T08:16:16;21.40;;;14.20;;
6626;SDS011;3349;49.830;8.748;2022-12-10T08:18:46;24.93;;;16.23;;
6626;SDS011;3349;49.830;8.748;2022-12-10T08:21:13;21.63;;;14.43;;
6626;SDS011;3349;49.830;8.748;2022-12-10T08:23:41;23.77;;;15.30;;
6626;SDS011;3349;49.830;8.748;2022-12-10T08:26:10;22.63;;;14.67;;
6626;SDS011;3349;49.830;8.748;2022-12-10T08:28:38;21.60;;;14.53;;
6626;SDS011;3349;49.830;8.748;2022-12-10T08:31:05;24.03;;;14.07;;
6626;SDS011;3349;49.830;8.748;2022-12-10T08:33:34;20.60;;;13.77;;
6626;SDS011;3349;49.830;8.748;2022-12-10T08:36:04;19.77;;;13.07;;
6626;SDS011;3349;49.830;8.748;2022-12-10T08:38:33;19.97;;;13.93;;
6626;SDS011;3349;49.830;8.748;2022-12-10T08:41:05;23.87;;;14.47;;
6626;SDS011;3349;49.830;8.748;2022-12-10T08:43:32;21.50;;;14.70;;
6626;SDS011;3349;49.830;8.748;2022-12-10T08:45:59;23.53;;;14.67;;
6626;SDS011;3349;49.830;8.748;2022-12-10T08:48:26;20.73;;;13.57;;
6626;SDS011;3349;49.830;8.748;2022-12-10T08:50:53;21.67;;;13.80;;
6626;SDS011;3349;49.830;8.748;2022-12-10T08:53:21;23.90;;;18.10;;
6626;SDS011;3349;49.830;8.748;2022-12-10T08:55:49;21.30;;;14.23;;
6626;SDS011;3349;49.830;8.748;2022-12-10T08:58:16;22.60;;;14.97;;
6626;SDS011;3349;49.830;8.748;2022-12-10T09:00:43;25.00;;;15.80;;
6626;SDS011;3349;49.830;8.748;2022-12-10T09:03:10;22.67;;;13.70;;
6626;SDS011;3349;49.830;8.748;2022-12-10T09:05:37;20.57;;;13.57;;
6626;SDS011;3349;49.830;8.748;2022-12-10T09:08:04;22.47;;;14.80;;
6626;SDS011;3349;49.830;8.748;2022-12-10T09:10:32;21.60;;;14.67;;
6626;SDS011;3349;49.830;8.748;2022-12-10T09:13:00;20.70;;;14.17;;
6626;SDS011;3349;49.830;8.748;2022-12-10T09:15:27;21.50;;;13.87;;
6626;SDS011;3349;49.830;8.748;2022-12-10T09:17:54;24.43;;;14.80;;
6626;SDS011;3349;49.830;8.748;2022-12-10T09:20:21;19.73;;;13.13;;
6626;SDS011;3349;49.830;8.748;2022-12-10T09:22:48;20.80;;;13.47;;
6626;SDS011;3349;49.830;8.748;2022-12-10T09:25:15;18.53;;;13.13;;
6626;SDS011;3349;49.830;8.748;2022-12-10T09:27:43;19.87;;;13.70;;
6626;SDS011;3349;49.830;8.748;2022-12-10T09:30:11;18.87;;;13.23;;
6626;SDS011;3349;49.830;8.748;2022-12-10T09:32:38;20.90;;;13.87;;
6626;SDS011;3349;49.830;8.748;2022-12-10T09:35:05;20.70;;;14.37;;
6626;SDS011;3349;49.830;8.748;2022-12-10T09:37:32;21.00;;;13.47;;
6626;SDS011;3349;49.830;8.748;2022-12-10T09:39:59;20.80;;;14.87;;
6626;SDS011;3349;49.830;8.748;2022-12-10T09:42:30;24.43;;;14.57;;
6626;SDS011;3349;49.830;8.748;2022-12-10T09:45:09;21.90;;;14.13;;
6626;SDS011;3349;49.830;8.748;2022-12-10T09:47:45;19.03;;;13.13;;
6626;SDS011;3349;49.830;8.748;2022-12-10T09:50:20;18.90;;;13.73;;
6626;SDS011;3349;49.830;8.748;2022-12-10T09:52:52;24.10;;;17.50;;
6626;SDS011;3349;49.830;8.748;2022-12-10T09:55:24;20.63;;;14.77;;
6626;SDS011;3349;49.830;8.748;2022-12-10T09:57:57;18.70;;;13.60;;
6626;SDS011;3349;49.830;8.748;2022-12-10T10:00:29;18.80;;;13.27;;
6626;SDS011;3349;49.830;8.748;2022-12-10T10:02:59;20.27;;;13.60;;
6626;SDS011;3349;49.830;8.748;2022-12-10T10:05:27;20.87;;;14.17;;
6626;SDS011;3349;49.830;8.748;2022-12-10T10:07:56;21.83;;;14.43;;
6626;SDS011;3349;49.830;8.748;2022-12-10T10:10:26;21.30;;;13.27;;
6626;SDS011;3349;49.830;8.748;2022-12-10T10:12:58;19.37;;;13.30;;
6626;SDS011;3349;49.830;8.748;2022-12-10T10:15:30;19.13;;;13.50;;
6626;SDS011;3349;49.830;8.748;2022-12-10T10:18:00;19.63;;;12.80;;
6626;SDS011;3349;49.830;8.748;2022-12-10T10:20:30;20.93;;;13.57;;
6626;SDS011;3349;49.830;8.748;2022-12-10T10:22:57;19.20;;;13.80;;
6626;SDS011;3349;49.830;8.748;2022-12-10T10:25:25;19.93;;;13.47;;
6626;SDS011;3349;49.830;8.748;2022-12-10T10:27:54;19.73;;;13.23;;
6626;SDS011;3349;49.830;8.748;2022-12-10T10:30:22;17.83;;;13.13;;
6626;SDS011;3349;49.830;8.748;2022-12-10T10:32:52;20.13;;;13.33;;
6626;SDS011;3349;49.830;8.748;2022-12-10T10:35:24;19.93;;;14.33;;
6626;SDS011;3349;49.830;8.748;2022-12-10T10:37:55;19.60;;;13.30;;
6626;SDS011;3349;49.830;8.748;2022-12-10T10:40:25;21.43;;;12.90;;
6626;SDS011;3349;49.830;8.748;2022-12-10T10:42:54;20.73;;;13.00;;
6626;SDS011;3349;49.830;8.748;2022-12-10T10:45:39;20.53;;;13.10;;
6626;SDS011;3349;49.830;8.748;2022-12-10T10:48:13;20.23;;;14.17;;
6626;SDS011;3349;49.830;8.748;2022-12-10T10:50:42;20.00;;;13.77;;
6626;SDS011;3349;49.830;8.748;2022-12-10T10:55:55;21.03;;;13.00;;
6626;SDS011;3349;49.830;8.748;2022-12-10T10:58:25;17.27;;;12.13;;
6626;SDS011;3349;49.830;8.748;2022-12-10T11:00:53;18.43;;;13.27;;
6626;SDS011;3349;49.830;8.748;2022-12-10T11:03:24;17.53;;;12.07;;
6626;SDS011;3349;49.830;8.748;2022-12-10T11:05:51;17.67;;;12.80;;
6626;SDS011;3349;49.830;8.748;2022-12-10T11:08:19;19.07;;;12.40;;
6626;SDS011;3349;49.830;8.748;2022-12-10T11:10:47;19.77;;;12.30;;
6626;SDS011;3349;49.830;8.748;2022-12-10T11:13:19;19.57;;;13.30;;
6626;SDS011;3349;49.830;8.748;2022-12-10T11:15:54;17.33;;;12.77;;
6626;SDS011;3349;49.830;8.748;2022-12-10T11:18:25;22.57;;;15.43;;
6626;SDS011;3349;49.830;8.748;2022-12-10T11:20:58;22.77;;;15.77;;
6626;SDS011;3349;49.830;8.748;2022-12-10T11:23:27;34.37;;;21.17;;
6626;SDS011;3349;49.830;8.748;2022-12-10T11:25:56;19.27;;;13.87;;
6626;SDS011;3349;49.830;8.748;2022-12-10T11:28:33;18.77;;;13.30;;
6626;SDS011;3349;49.830;8.748;2022-12-10T11:31:11;20.13;;;12.90;;
6626;SDS011;3349;49.830;8.748;2022-12-10T11:33:50;17.67;;;11.70;;
6626;SDS011;3349;49.830;8.748;2022-12-10T11:36:25;19.27;;;13.87;;
6626;SDS011;3349;49.830;8.748;2022-12-10T11:39:02;18.40;;;12.63;;
6626;SDS011;3349;49.830;8.748;2022-12-10T11:41:44;21.73;;;13.27;;
6626;SDS011;3349;49.830;8.748;2022-12-10T11:44:19;18.87;;;12.07;;
6626;SDS011;3349;49.830;8.748;2022-12-10T11:46:57;16.77;;;12.17;;
6626;SDS011;3349;49.830;8.748;2022-12-10T11:49:47;18.23;;;13.17;;
6626;SDS011;3349;49.830;8.748;2022-12-10T11:52:28;18.27;;;12.50;;
6626;SDS011;3349;49.830;8.748;2022-12-10T11:55:07;18.90;;;12.90;;
6626;SDS011;3349;49.830;8.748;2022-12-10T11:57:48;22.53;;;13.90;;
6626;SDS011;3349;49.830;8.748;2022-12-10T12:00:23;26.00;;;14.43;;
6626;SDS011;3349;49.830;8.748;2022-12-10T12:03:20;20.87;;;14.73;;
6626;SDS011;3349;49.830;8.748;2022-12-10T12:06:03;20.03;;;13.43;;
6626;SDS011;3349;49.830;8.748;2022-12-10T12:08:45;20.03;;;14.00;;
6626;SDS011;3349;49.830;8.748;2022-12-10T12:11:23;19.87;;;13.67;;
6626;SDS011;3349;49.830;8.748;2022-12-10T12:13:59;19.67;;;13.53;;
6626;SDS011;3349;49.830;8.748;2022-12-10T12:16:32;20.60;;;13.60;;
6626;SDS011;3349;49.830;8.748;2022-12-10T12:19:04;21.77;;;14.23;;
6626;SDS011;3349;49.830;8.748;2022-12-10T12:21:38;20.73;;;13.90;;
6626;SDS011;3349;49.830;8.748;2022-12-10T12:24:09;20.00;;;13.70;;
6626;SDS011;3349;49.830;8.748;2022-12-10T12:26:42;23.47;;;14.60;;
6626;SDS011;3349;49.830;8.748;2022-12-10T12:29:13;23.37;;;15.70;;
6626;SDS011;3349;49.830;8.748;2022-12-10T12:31:46;21.73;;;14.83;;
6626;SDS011;3349;49.830;8.748;2022-12-10T12:34:21;23.03;;;15.93;;
6626;SDS011;3349;49.830;8.748;2022-12-10T12:36:52;20.37;;;13.67;;
6626;SDS011;3349;49.830;8.748;2022-12-10T12:39:21;19.07;;;13.90;;
6626;SDS011;3349;49.830;8.748;2022-12-10T12:42:01;19.20;;;13.53;;
6626;SDS011;3349;49.830;8.748;2022-12-10T12:44:40;20.83;;;14.47;;
6626;SDS011;3349;49.830;8.748;2022-12-10T12:47:19;21.37;;;14.33;;
6626;SDS011;3349;49.830;8.748;2022-12-10T12:49:56;21.17;;;14.10;;
6626;SDS011;3349;49.830;8.748;2022-12-10T12:52:28;21.20;;;14.83;;
6626;SDS011;3349;49.830;8.748;2022-12-10T12:55:02;20.67;;;14.60;;
6626;SDS011;3349;49.830;8.748;2022-12-10T12:57:36;20.30;;;14.07;;
6626;SDS011;3349;49.830;8.748;2022-12-10T13:00:10;20.63;;;13.90;;
6626;SDS011;3349;49.830;8.748;2022-12-10T13:02:45;21.37;;;14.60;;
6626;SDS011;3349;49.830;8.748;2022-12-10T13:05:19;22.93;;;14.93;;
6626;SDS011;3349;49.830;8.748;2022-12-10T13:10:52;24.47;;;15.70;;
6626;SDS011;3349;49.830;8.748;2022-12-10T13:13:24;24.83;;;15.50;;
6626;SDS011;3349;49.830;8.748;2022-12-10T13:15:54;23.00;;;16.00;;
6626;SDS011;3349;49.830;8.748;2022-12-10T13:18:22;21.17;;;14.63;;
6626;SDS011;3349;49.830;8.748;2022-12-10T13:21:24;21.93;;;15.10;;
6626;SDS011;3349;49.830;8.748;2022-12-10T13:24:05;23.50;;;14.50;;
6626;SDS011;3349;49.830;8.748;2022-12-10T13:26:34;22.17;;;14.87;;
6626;SDS011;3349;49.830;8.748;2022-12-10T13:29:11;20.17;;;13.60;;
6626;SDS011;3349;49.830;8.748;2022-12-10T13:31:54;21.17;;;13.03;;
6626;SDS011;3349;49.830;8.748;2022-12-10T13:34:29;20.50;;;14.30;;
6626;SDS011;3349;49.830;8.748;2022-12-10T13:37:14;21.83;;;14.93;;
6626;SDS011;3349;49.830;8.748;2022-12-10T13:39:47;22.97;;;15.10;;
6626;SDS011;3349;49.830;8.748;2022-12-10T13:42:25;21.20;;;14.13;;
6626;SDS011;3349;49.830;8.748;2022-12-10T13:45:26;18.87;;;13.33;;
6626;SDS011;3349;49.830;8.748;2022-12-10T13:50:51;19.20;;;13.60;;
6626;SDS011;3349;49.830;8.748;2022-12-10T13:53:29;17.93;;;12.80;;
6626;SDS011;3349;49.830;8.748;2022-12-10T13:56:07;20.00;;;13.33;;
6626;SDS011;3349;49.830;8.748;2022-12-10T13:58:45;19.83;;;13.97;;
6626;SDS011;3349;49.830;8.748;2022-12-10T14:01:20;21.10;;;13.73;;
6626;SDS011;3349;49.830;8.748;2022-12-10T14:06:57;20.80;;;13.43;;
6626;SDS011;3349;49.830;8.748;2022-12-10T14:09:25;18.83;;;13.73;;
6626;SDS011;3349;49.830;8.748;2022-12-10T14:12:00;21.97;;;14.20;;
6626;SDS011;3349;49.830;8.748;2022-12-10T14:14:31;22.47;;;14.67;;
6626;SDS011;3349;49.830;8.748;2022-12-10T14:17:00;19.43;;;12.70;;
6626;SDS011;3349;49.830;8.748;2022-12-10T14:19:28;17.40;;;12.40;;
6626;SDS011;3349;49.830;8.748;2022-12-10T14:21:55;18.67;;;12.10;;
6626;SDS011;3349;49.830;8.748;2022-12-10T14:24:27;19.50;;;13.37;;
6626;SDS011;3349;49.830;8.748;2022-12-10T14:27:00;19.80;;;13.20;;
6626;SDS011;3349;49.830;8.748;2022-12-10T14:29:29;21.57;;;13.90;;
6626;SDS011;3349;49.830;8.748;2022-12-10T14:31:56;17.90;;;12.00;;
6626;SDS011;3349;49.830;8.748;2022-12-10T14:34:24;17.33;;;12.20;;
6626;SDS011;3349;49.830;8.748;2022-12-10T14:36:54;19.20;;;13.33;;
6626;SDS011;3349;49.830;8.748;2022-12-10T14:39:24;24.07;;;15.17;;
6626;SDS011;3349;49.830;8.748;2022-12-10T14:41:55;28.93;;;17.93;;
6626;SDS011;3349;49.830;8.748;2022-12-10T14:44:24;18.83;;;13.40;;
6626;SDS011;3349;49.830;8.748;2022-12-10T14:46:52;18.70;;;13.60;;
6626;SDS011;3349;49.830;8.748;2022-12-10T14:49:31;21.50;;;13.60;;
6626;SDS011;3349;49.830;8.748;2022-12-10T14:51:59;20.87;;;14.47;;
6626;SDS011;3349;49.830;8.748;2022-12-10T14:54:27;19.50;;;13.90;;
6626;SDS011;3349;49.830;8.748;2022-12-10T14:56:56;17.40;;;12.03;;
6626;SDS011;3349;49.830;8.748;2022-12-10T14:59:27;23.37;;;14.50;;
6626;SDS011;3349;49.830;8.748;2022-12-10T15:01:59;24.97;;;16.13;;
6626;SDS011;3349;49.830;8.748;2022-12-10T15:04:38;19.23;;;12.87;;
6626;SDS011;3349;49.830;8.748;2022-12-10T15:07:08;22.40;;;13.30;;
6626;SDS011;3349;49.830;8.748;2022-12-10T15:09:40;33.80;;;21.53;;
6626;SDS011;3349;49.830;8.748;2022-12-10T15:12:15;31.43;;;21.13;;
6626;SDS011;3349;49.830;8.748;2022-12-10T15:14:59;26.23;;;16.53;;
6626;SDS011;3349;49.830;8.748;2022-12-10T15:17:33;33.37;;;21.23;;